»·PEaware :: UAL515 KSEA-KPDX

UAL515 :: KSEA-KPDX

FLIGHT INFORMATION

Flight Status: Arrived
Operator:
United Airlines
More flights by this operator :: More flights under this callsign
Pilot: Doug L. (8712)
Aircraft: BOEING 717-200
(B712)
More flights by this aircraft type
Origin: KSEA Seattle-Tacoma Intl
United States
Destination: KPDX Portland Intl
United States
More flights between these airports :: More routes between these airports
Route: SEA BUWZO KRATR2
File this flight plan on PilotEdge
Remarks:
Altitude:
(Current/Filed)
17,000ft
Speed:
(Current/Filed)
425kts
Departed: 08-Jan-19 01:41 PM
Arrived: 08-Jan-19 02:27 PM
Distance/Time
Traveled:
112nm/0:46
Distance/Time
To Go:
Arrived

Flight Plot

Page will automatically refresh every two minutes.


Map Options




Map Legend


Flown Route
Filed Route
Departure Airport
Arrival Airport
Navaid (VOR, NDB)
Fix

Horizontal Profiles

Position Reports

Time Latitude Longitude Heading Altitude Ground
Speed
08-Jan-19 13:29 47.444367 -122.304367 119 441ft 0kts
08-Jan-19 13:30 47.444367 -122.304367 119 441ft 0kts
08-Jan-19 13:31 47.444367 -122.304367 119 441ft 0kts
08-Jan-19 13:32 47.444367 -122.304367 119 441ft 0kts
08-Jan-19 13:33 47.444558 -122.304864 119 441ft 2kts
08-Jan-19 13:34 47.444721 -122.305289 119 441ft 0kts
08-Jan-19 13:35 47.444721 -122.305288 119 441ft 0kts
08-Jan-19 13:36 47.445515 -122.305393 305 441ft 18kts
08-Jan-19 13:37 47.451014 -122.306278 358 441ft 26kts
08-Jan-19 13:38 47.459537 -122.306208 359 441ft 29kts
08-Jan-19 13:39 47.462920 -122.306123 358 441ft 11kts
08-Jan-19 13:40 47.458739 -122.307816 180 441ft 99kts
08-Jan-19 13:41 47.410148 -122.309247 177 3012ft 168kts
08-Jan-19 13:42 47.352478 -122.314386 179 4893ft 238kts
08-Jan-19 13:43 47.285337 -122.317153 177 8197ft 246kts
08-Jan-19 13:44 47.217982 -122.315223 182 11719ft 240kts
08-Jan-19 13:45 47.150010 -122.313822 183 14544ft 254kts
08-Jan-19 13:46 47.075832 -122.312287 183 16253ft 290kts
08-Jan-19 13:47 46.988021 -122.310448 182 16982ft 351kts
08-Jan-19 13:48 46.885861 -122.309614 183 16976ft 370kts
08-Jan-19 13:49 46.782711 -122.309612 183 16977ft 370kts
08-Jan-19 13:50 46.680068 -122.309611 183 16979ft 369kts
08-Jan-19 13:51 46.577147 -122.309609 183 16984ft 369kts
08-Jan-19 13:52 46.474463 -122.309609 183 16987ft 369kts
08-Jan-19 13:53 46.371858 -122.309591 183 15543ft 361kts
08-Jan-19 13:54 46.273900 -122.310453 187 13044ft 341kts
08-Jan-19 13:55 46.186695 -122.348870 200 11038ft 312kts
08-Jan-19 13:56 46.105910 -122.393831 199 10054ft 311kts
08-Jan-19 13:57 46.024196 -122.438167 198 9640ft 316kts
08-Jan-19 13:58 45.943297 -122.482299 200 8183ft 304kts
08-Jan-19 13:59 45.881228 -122.551373 215 6853ft 258kts
08-Jan-19 14:00 45.829514 -122.616652 214 5753ft 231kts
08-Jan-19 14:01 45.782079 -122.676865 219 5162ft 232kts
08-Jan-19 14:02 45.753883 -122.755204 276 4983ft 241kts
08-Jan-19 14:03 45.779489 -122.844997 294 4986ft 244kts
08-Jan-19 14:04 45.781989 -122.930285 216 4205ft 223kts
08-Jan-19 14:05 45.731943 -122.935311 134 4014ft 202kts
08-Jan-19 14:06 45.701063 -122.868306 120 3905ft 202kts
08-Jan-19 14:07 45.674170 -122.799641 119 3132ft 182kts
08-Jan-19 14:08 45.650766 -122.739396 119 2251ft 171kts
08-Jan-19 14:09 45.630194 -122.686550 118 1447ft 139kts
08-Jan-19 14:10 45.611261 -122.637881 117 716ft 139kts
08-Jan-19 14:11 45.592412 -122.589385 118 542ft 156kts
08-Jan-19 14:12 45.579184 -122.516865 61 3426ft 239kts
08-Jan-19 14:13 45.638727 -122.511730 311 3996ft 256kts
08-Jan-19 14:14 45.685481 -122.586699 297 3981ft 258kts
08-Jan-19 14:15 45.717380 -122.675874 296 3951ft 239kts
08-Jan-19 14:16 45.741069 -122.741614 296 3964ft 238kts
08-Jan-19 14:17 45.771739 -122.825536 296 3965ft 239kts
08-Jan-19 14:18 45.787907 -122.912081 234 3946ft 225kts
08-Jan-19 14:19 45.737548 -122.916229 147 4003ft 200kts
08-Jan-19 14:20 45.699694 -122.863938 122 3853ft 193kts
08-Jan-19 14:21 45.674290 -122.799958 119 3132ft 171kts
08-Jan-19 14:22 45.651125 -122.740351 118 2272ft 171kts
08-Jan-19 14:23 45.630948 -122.688460 117 1493ft 143kts
08-Jan-19 14:24 45.611780 -122.639194 117 738ft 140kts
08-Jan-19 14:25 45.593449 -122.592118 117 42ft 126kts
08-Jan-19 14:26 45.588605 -122.582161 212 38ft 0kts
08-Jan-19 14:27 45.590020 -122.589018 269 38ft 3kts

Navigation Log

Ident Type
Flight plan parsing failed, navigation log unavailable